Time;durP1;ratioP1;P1;durP2;ratioP2;P2;SDS_P1;SDS_P2;PMS_P1;PMS_P2;Temp;Humidity;BMP_temperature;BMP_pressure;BME280_temperature;BME280_humidity;BME280_pressure;Samples;Min_cycle;Max_cycle;Signal;HPM_P1;HPM_P2
2021/06/15 00:00:27;;;;;;;5.15;3.17;;;15.80;84.60;;;;;;5071948;28;20063;-62
2021/06/15 00:02:54;;;;;;;6.15;2.75;;;15.80;83.80;;;;;;5072072;28;20107;-57
2021/06/15 00:05:22;;;;;;;4.60;2.95;;;15.80;83.60;;;;;;5072115;28;20020;-55
2021/06/15 00:07:49;;;;;;;7.68;3.10;;;15.80;83.60;;;;;;5072444;28;20087;-59
2021/06/15 00:10:22;;;;;;;6.13;2.72;;;15.90;83.40;;;;;;5071980;28;20324;-57
2021/06/15 00:12:52;;;;;;;5.20;2.97;;;15.90;83.10;;;;;;5071720;28;20471;-62
2021/06/15 00:15:20;;;;;;;5.00;2.67;;;16.00;83.10;;;;;;5072408;28;20052;-61
2021/06/15 00:17:48;;;;;;;17.20;3.08;;;16.00;82.80;;;;;;5072464;28;20031;-62
2021/06/15 00:20:16;;;;;;;5.68;2.53;;;16.00;82.60;;;;;;5072343;28;20048;-60
2021/06/15 00:22:44;;;;;;;9.55;2.50;;;16.00;82.50;;;;;;5072254;28;20028;-62
2021/06/15 00:25:13;;;;;;;4.20;2.85;;;16.00;82.40;;;;;;5072020;28;20486;-61
2021/06/15 00:27:41;;;;;;;9.63;2.97;;;16.10;82.30;;;;;;5053872;28;20032;-59
2021/06/15 00:30:11;;;;;;;7.28;3.08;;;16.10;82.40;;;;;;5053759;28;20031;-62
2021/06/15 00:32:40;;;;;;;9.82;2.92;;;16.10;82.40;;;;;;5072500;28;20418;-57
2021/06/15 00:35:08;;;;;;;8.02;4.13;;;16.10;82.20;;;;;;5071840;28;20104;-57
2021/06/15 00:37:36;;;;;;;5.05;2.70;;;16.10;82.10;;;;;;5071872;28;20020;-63
2021/06/15 00:40:06;;;;;;;7.07;2.38;;;16.10;82.00;;;;;;5072235;28;20255;-63
2021/06/15 00:42:34;;;;;;;7.40;3.28;;;16.10;82.00;;;;;;5071933;28;20475;-60
2021/06/15 00:45:01;;;;;;;4.55;2.90;;;16.10;82.00;;;;;;5071857;28;20025;-60
2021/06/15 00:47:29;;;;;;;4.72;2.95;;;16.10;82.00;;;;;;5071797;28;20115;-63
2021/06/15 00:49:57;;;;;;;6.93;2.67;;;16.10;82.00;;;;;;5054086;28;20033;-60
2021/06/15 00:52:25;;;;;;;9.27;4.35;;;16.10;81.90;;;;;;5071842;28;20039;-65
2021/06/15 00:54:52;;;;;;;8.48;3.17;;;16.20;82.00;;;;;;5071551;28;20024;-62
2021/06/15 00:57:26;;;;;;;11.07;3.35;;;16.20;82.00;;;;;;5072013;28;20024;-60
2021/06/15 00:59:54;;;;;;;12.43;2.88;;;16.20;82.00;;;;;;5054065;28;20101;-55
2021/06/15 01:02:23;;;;;;;4.53;2.80;;;16.20;82.00;;;;;;5071914;28;20082;-60
2021/06/15 01:04:51;;;;;;;4.40;2.72;;;16.20;82.00;;;;;;5071724;28;20111;-56
2021/06/15 01:07:20;;;;;;;5.15;2.83;;;16.20;82.00;;;;;;5071649;28;20028;-56
2021/06/15 01:10:28;;;;;;;3.75;2.45;;;16.20;81.90;;;;;;5071786;28;20040;-59
2021/06/15 01:13:24;;;;;;;7.97;3.10;;;16.20;82.10;;;;;;5042899;28;20044;-61
2021/06/15 01:15:52;;;;;;;7.03;2.75;;;16.20;82.10;;;;;;5073383;28;20020;-62
2021/06/15 01:18:24;;;;;;;7.53;2.95;;;16.20;82.20;;;;;;5075031;28;20029;-60
2021/06/15 01:20:59;;;;;;;8.77;2.88;;;16.20;82.10;;;;;;5075274;28;20546;-59
2021/06/15 01:23:42;;;;;;;9.25;3.22;;;16.20;82.10;;;;;;5075187;28;20059;-56
2021/06/15 01:26:34;;;;;;;7.13;2.75;;;16.20;82.30;;;;;;5056988;28;20032;-62
2021/06/15 01:29:08;;;;;;;8.00;3.00;;;16.20;82.30;;;;;;5074870;28;20029;-59
2021/06/15 01:31:39;;;;;;;4.72;2.75;;;16.20;82.50;;;;;;5056953;28;20475;-57
2021/06/15 01:34:13;;;;;;;5.03;2.57;;;16.20;82.30;;;;;;5074934;28;20032;-58
2021/06/15 01:37:11;;;;;;;9.00;2.90;;;16.30;82.20;;;;;;5075160;28;20334;-60
2021/06/15 01:39:56;;;;;;;10.73;3.88;;;16.30;82.30;;;;;;5058303;28;20029;-51
2021/06/15 01:42:31;;;;;;;8.32;3.38;;;16.20;82.10;;;;;;5074882;28;20041;-58
2021/06/15 01:45:07;;;;;;;4.65;2.45;;;16.30;82.20;;;;;;5074668;28;20020;-57
2021/06/15 01:47:39;;;;;;;5.95;2.67;;;16.30;82.20;;;;;;5075422;28;20021;-56
2021/06/15 01:50:09;;;;;;;10.10;3.30;;;16.30;82.00;;;;;;5074442;28;20082;-51
2021/06/15 01:52:39;;;;;;;3.70;2.67;;;16.30;82.00;;;;;;5075097;28;20056;-55
2021/06/15 01:55:08;;;;;;;5.63;2.47;;;16.30;81.90;;;;;;5074908;28;20116;-55
2021/06/15 01:57:37;;;;;;;3.85;2.35;;;16.30;82.00;;;;;;5074949;28;20042;-55
2021/06/15 02:00:12;;;;;;;4.18;2.67;;;16.30;82.00;;;;;;5074604;28;20032;-54
2021/06/15 02:02:41;;;;;;;4.32;2.55;;;16.40;82.10;;;;;;5071780;28;20032;-58
2021/06/15 02:05:10;;;;;;;12.82;3.60;;;16.40;82.10;;;;;;5074404;28;20059;-55
2021/06/15 02:07:46;;;;;;;5.47;2.47;;;16.40;82.30;;;;;;5074960;28;20356;-59
2021/06/15 02:10:16;;;;;;;11.73;2.65;;;16.50;82.20;;;;;;5074329;28;20031;-53
2021/06/15 02:12:48;;;;;;;4.10;2.58;;;16.50;81.90;;;;;;5074895;28;20028;-62
2021/06/15 02:15:17;;;;;;;6.03;2.83;;;16.50;82.00;;;;;;5074565;28;20412;-54
2021/06/15 02:17:46;;;;;;;4.82;2.20;;;16.60;81.90;;;;;;5074767;28;20069;-55
2021/06/15 02:20:16;;;;;;;9.18;3.33;;;16.60;81.70;;;;;;5074069;28;20045;-62
2021/06/15 02:22:49;;;;;;;10.98;2.55;;;16.70;81.60;;;;;;5074619;28;20025;-58
2021/06/15 02:25:26;;;;;;;;;;;16.70;81.30;;;;;;5075011;28;20405;-58
2021/06/15 02:27:54;;;;;;;4.30;2.22;;;16.80;81.10;;;;;;5073382;28;19911;-60
2021/06/15 02:30:23;;;;;;;9.48;2.58;;;16.80;81.00;;;;;;5074524;28;20026;-58
2021/06/15 02:32:52;;;;;;;9.93;2.80;;;16.90;80.80;;;;;;5074368;28;20032;-57
2021/06/15 02:35:24;;;;;;;7.72;3.15;;;17.00;80.50;;;;;;5074156;28;20020;-57
2021/06/15 02:37:57;;;;;;;21.88;2.92;;;17.00;80.20;;;;;;5074069;28;20052;-56
2021/06/15 02:40:27;;;;;;;25.55;3.90;;;17.00;80.20;;;;;;5073589;28;20513;-63
2021/06/15 02:42:56;;;;;;;13.93;2.78;;;17.10;80.10;;;;;;5074336;28;20033;-59
2021/06/15 02:45:31;;;;;;;9.13;2.83;;;17.20;80.10;;;;;;5074218;28;20099;-61
2021/06/15 02:48:05;;;;;;;8.02;2.20;;;17.20;80.10;;;;;;5073776;28;20040;-59
2021/06/15 02:50:34;;;;;;;32.13;4.18;;;17.30;80.00;;;;;;5056648;28;20471;-59
2021/06/15 02:53:07;;;;;;;4.75;2.42;;;17.40;81.00;;;;;;5073420;28;20549;-62
2021/06/15 02:55:34;;;;;;;;;;;17.60;79.20;;;;;;5073708;28;20078;-60
2021/06/15 02:58:02;;;;;;;2.75;1.90;;;17.70;79.50;;;;;;5073531;28;19912;-58
2021/06/15 03:00:30;;;;;;;10.95;2.22;;;17.90;77.50;;;;;;5055558;28;20387;-63
2021/06/15 03:02:58;;;;;;;5.82;2.65;;;17.90;77.10;;;;;;5072103;28;20032;-57
2021/06/15 03:05:26;;;;;;;5.30;1.88;;;17.90;77.30;;;;;;5054918;28;20052;-60
2021/06/15 03:07:53;;;;;;;10.52;2.65;;;17.90;77.00;;;;;;5073661;28;20107;-55
2021/06/15 03:10:24;;;;;;;5.85;2.20;;;18.00;77.40;;;;;;5073483;28;20494;-58
2021/06/15 03:13:04;;;;;;;5.82;2.17;;;18.10;78.00;;;;;;5073261;28;20055;-64
2021/06/15 03:15:49;;;;;;;5.20;2.15;;;18.20;76.60;;;;;;5073709;28;20066;-58
2021/06/15 03:18:42;;;;;;;4.10;1.85;;;18.20;76.50;;;;;;5055519;28;20024;-58
2021/06/15 03:21:17;;;;;;;5.28;2.20;;;18.10;75.90;;;;;;5073467;28;20063;-63
2021/06/15 03:23:45;;;;;;;4.10;1.75;;;18.10;76.20;;;;;;5074193;28;20107;-64
2021/06/15 03:26:38;;;;;;;6.63;1.58;;;18.10;76.30;;;;;;5073504;28;20043;-57
2021/06/15 03:29:12;;;;;;;7.40;2.10;;;18.10;76.10;;;;;;5073394;28;20100;-54
2021/06/15 03:31:44;;;;;;;5.43;2.03;;;18.10;77.50;;;;;;5073075;28;20396;-58
2021/06/15 03:34:15;;;;;;;11.82;2.38;;;18.00;77.00;;;;;;5073143;28;20020;-61
2021/06/15 03:36:46;;;;;;;14.00;2.30;;;18.00;76.80;;;;;;5073301;28;20438;-57
2021/06/15 03:39:16;;;;;;;3.00;2.00;;;18.00;77.70;;;;;;5073490;28;20048;-52
2021/06/15 03:41:44;;;;;;;3.33;1.80;;;17.90;77.10;;;;;;5072984;28;20553;-55
2021/06/15 03:44:14;;;;;;;3.58;1.73;;;17.90;77.50;;;;;;5072417;28;20024;-58
2021/06/15 03:46:43;;;;;;;4.88;1.58;;;17.90;78.00;;;;;;5054749;28;20016;-59
2021/06/15 03:49:13;;;;;;;6.43;2.00;;;17.90;79.00;;;;;;5072687;28;20052;-57
2021/06/15 03:51:49;;;;;;;3.53;1.70;;;17.90;79.10;;;;;;5072564;28;20035;-60
2021/06/15 03:54:17;;;;;;;3.00;1.52;;;17.90;77.90;;;;;;5072903;28;20113;-58
2021/06/15 03:56:47;;;;;;;5.10;1.77;;;17.90;78.80;;;;;;5072754;28;20024;-57
2021/06/15 03:59:23;;;;;;;4.00;1.85;;;17.90;77.70;;;;;;5072356;28;20052;-57
2021/06/15 04:01:52;;;;;;;3.30;2.08;;;17.80;78.10;;;;;;5072418;28;20147;-58
2021/06/15 04:04:21;;;;;;;3.58;1.65;;;17.80;78.30;;;;;;5054225;28;20027;-55
2021/06/15 04:06:54;;;;;;;11.38;3.05;;;17.80;78.20;;;;;;5072461;28;20028;-60
2021/06/15 04:09:24;;;;;;;5.95;1.60;;;17.80;78.00;;;;;;5072424;28;20490;-53
2021/06/15 04:11:54;;;;;;;4.55;1.88;;;17.80;78.90;;;;;;5072232;28;20025;-57
2021/06/15 04:14:23;;;;;;;6.38;1.60;;;17.70;78.80;;;;;;5072263;28;20040;-61
2021/06/15 04:16:51;;;;;;;3.88;1.67;;;17.70;78.60;;;;;;5072334;28;20091;-59
2021/06/15 04:19:27;;;;;;;5.38;2.10;;;17.70;78.70;;;;;;5072025;28;20513;-53
2021/06/15 04:22:01;;;;;;;3.67;1.85;;;17.70;79.00;;;;;;5071797;28;20496;-55
2021/06/15 04:24:29;;;;;;;8.57;1.85;;;17.60;79.60;;;;;;5071701;28;20027;-56
2021/06/15 04:26:59;;;;;;;4.75;2.17;;;17.60;79.70;;;;;;5072567;28;20020;-61
2021/06/15 04:29:28;;;;;;;2.50;1.80;;;17.60;80.00;;;;;;5072117;28;20028;-58
2021/06/15 04:32:01;;;;;;;3.08;1.85;;;17.60;80.50;;;;;;5072218;28;20096;-60
2021/06/15 04:34:33;;;;;;;9.15;1.80;;;17.50;79.40;;;;;;5072004;28;20328;-58
2021/06/15 04:37:04;;;;;;;6.30;1.63;;;17.50;80.10;;;;;;5053735;28;20115;-62
2021/06/15 04:39:50;;;;;;;3.37;1.83;;;17.50;80.20;;;;;;5071584;28;20257;-56
2021/06/15 04:42:38;;;;;;;6.15;2.35;;;17.50;80.20;;;;;;5071538;28;20289;-61
2021/06/15 04:45:06;;;;;;;3.30;1.75;;;17.50;81.50;;;;;;5070985;28;20070;-59
2021/06/15 04:47:40;;;;;;;5.93;2.10;;;17.40;80.50;;;;;;5071174;28;20032;-60
2021/06/15 04:50:27;;;;;;;2.58;1.60;;;17.40;80.20;;;;;;5072049;28;20046;-56
2021/06/15 04:52:56;;;;;;;7.07;2.13;;;17.40;80.90;;;;;;5075297;28;20115;-59
2021/06/15 04:55:29;;;;;;;3.35;1.70;;;17.40;81.70;;;;;;5076108;28;20025;-60
2021/06/15 04:57:58;;;;;;;4.93;1.63;;;17.40;80.90;;;;;;5075100;28;20363;-58
2021/06/15 05:00:27;;;;;;;5.43;1.83;;;17.40;80.80;;;;;;5075547;28;20028;-57
2021/06/15 05:02:57;;;;;;;5.10;2.22;;;17.40;82.50;;;;;;5072546;28;20051;-56
2021/06/15 05:05:25;;;;;;;6.82;1.80;;;17.40;80.70;;;;;;5075741;28;20128;-61
2021/06/15 05:08:00;;;;;;;4.68;1.65;;;17.40;80.70;;;;;;5075540;28;20058;-57
2021/06/15 05:10:30;;;;;;;3.00;1.73;;;17.40;81.70;;;;;;5075555;28;20062;-50
2021/06/15 05:13:01;;;;;;;4.72;1.75;;;17.40;81.30;;;;;;5075194;28;20028;-57
2021/06/15 05:15:30;;;;;;;2.00;1.67;;;17.40;81.10;;;;;;5075609;28;20065;-54
2021/06/15 05:17:57;;;;;;;4.05;1.55;;;17.40;80.80;;;;;;5075165;28;20028;-56
2021/06/15 05:20:26;;;;;;;2.45;1.55;;;17.30;81.90;;;;;;5074978;28;20063;-57
2021/06/15 05:23:11;;;;;;;2.85;1.63;;;17.40;81.40;;;;;;5074836;28;20149;-58
2021/06/15 05:25:39;;;;;;;2.65;2.10;;;17.30;81.20;;;;;;5075113;28;20021;-54
2021/06/15 05:28:06;;;;;;;3.03;1.45;;;17.30;80.90;;;;;;5074837;28;20029;-53
2021/06/15 05:30:34;;;;;;;4.10;1.65;;;17.30;81.20;;;;;;5075468;28;20054;-61
2021/06/15 05:33:01;;;;;;;5.35;1.55;;;17.30;83.10;;;;;;5073901;28;20033;-62
2021/06/15 05:35:29;;;;;;;2.33;1.63;;;17.30;81.80;;;;;;5075309;28;20100;-61
2021/06/15 05:37:57;;;;;;;4.00;1.40;;;17.30;81.10;;;;;;5056908;28;20033;-53
2021/06/15 05:40:24;;;;;;;2.38;1.35;;;17.30;81.90;;;;;;5074330;28;20127;-55
2021/06/15 05:42:51;;;;;;;8.55;2.05;;;17.20;81.20;;;;;;5074891;28;20028;-60
2021/06/15 05:45:19;;;;;;;3.38;1.60;;;17.30;81.90;;;;;;5074232;28;20024;-55
2021/06/15 05:47:46;;;;;;;1.85;1.60;;;17.20;81.80;;;;;;5074440;28;20107;-54
2021/06/15 05:50:15;;;;;;;2.47;1.65;;;17.20;81.60;;;;;;5074446;28;20020;-55
2021/06/15 05:52:44;;;;;;;3.05;1.40;;;17.20;81.90;;;;;;5075245;28;20086;-58
2021/06/15 05:55:13;;;;;;;2.75;1.70;;;17.20;82.10;;;;;;5090253;28;20422;-53
2021/06/15 05:57:41;;;;;;;8.95;1.67;;;17.20;82.20;;;;;;5074637;28;20020;-59
2021/06/15 06:00:10;;;;;;;3.70;1.50;;;17.20;82.90;;;;;;5074220;28;20483;-57
2021/06/15 06:02:37;;;;;;;3.00;1.63;;;17.20;82.60;;;;;;5073127;28;20387;-61
2021/06/15 06:10:30;;;;;;;4.15;1.88;;;17.20;82.70;;;;;;5074662;28;20554;-59
2021/06/15 06:12:58;;;;;;;1.60;1.50;;;17.10;81.90;;;;;;5074186;28;20033;-58
2021/06/15 06:15:26;;;;;;;3.80;1.25;;;17.10;82.40;;;;;;5074357;28;20047;-62
2021/06/15 06:17:54;;;;;;;2.20;1.35;;;17.10;82.50;;;;;;5074322;28;20028;-57
2021/06/15 06:20:23;;;;;;;3.28;1.40;;;17.10;82.50;;;;;;5073647;28;20048;-56
2021/06/15 06:22:50;;;;;;;2.33;1.50;;;17.10;82.30;;;;;;5074115;28;20066;-55
2021/06/15 06:25:17;;;;;;;3.00;1.58;;;17.00;83.60;;;;;;5074025;28;20114;-57
2021/06/15 06:27:45;;;;;;;2.08;1.23;;;17.10;83.10;;;;;;5055899;28;20033;-58
2021/06/15 06:30:13;;;;;;;6.05;1.77;;;17.10;82.10;;;;;;5073539;28;20383;-53
2021/06/15 06:32:40;;;;;;;5.85;1.83;;;17.10;82.60;;;;;;5056112;28;20025;-53
2021/06/15 06:35:08;;;;;;;3.05;1.75;;;17.00;83.30;;;;;;5074232;28;20033;-58
2021/06/15 06:37:36;;;;;;;2.15;1.20;;;17.00;82.80;;;;;;5073905;28;20042;-52
2021/06/15 06:40:05;;;;;;;3.20;1.35;;;17.00;82.20;;;;;;5073728;28;20376;-56
2021/06/15 06:42:33;;;;;;;2.83;1.85;;;17.00;82.40;;;;;;5074091;28;20024;-62
2021/06/15 06:45:00;;;;;;;10.43;1.88;;;17.00;83.70;;;;;;5073466;28;20024;-58
2021/06/15 06:47:28;;;;;;;1.95;1.40;;;17.00;83.30;;;;;;5073773;28;20024;-53
2021/06/15 06:49:55;;;;;;;6.72;2.30;;;17.00;83.40;;;;;;5074015;28;20092;-51
2021/06/15 06:52:22;;;;;;;2.83;1.55;;;17.00;83.80;;;;;;5073775;28;20082;-50
2021/06/15 06:54:50;;;;;;;3.47;1.40;;;17.00;82.80;;;;;;5074517;28;20096;-58
2021/06/15 06:57:17;;;;;;;3.75;1.45;;;16.90;82.50;;;;;;5073831;28;20085;-57
2021/06/15 06:59:44;;;;;;;2.13;1.23;;;17.00;83.00;;;;;;5073605;28;20384;-56
2021/06/15 07:02:12;;;;;;;5.80;1.67;;;17.00;83.50;;;;;;5073563;28;20061;-57
2021/06/15 07:04:39;;;;;;;2.38;1.55;;;17.00;83.30;;;;;;5073651;28;20024;-52
2021/06/15 07:07:06;;;;;;;4.18;1.60;;;16.90;83.00;;;;;;5073272;28;20024;-64
2021/06/15 07:09:34;;;;;;;1.42;1.10;;;16.90;82.90;;;;;;5073077;28;20027;-58
2021/06/15 07:12:01;;;;;;;6.93;1.67;;;17.00;82.80;;;;;;5055715;28;20020;-63
2021/06/15 07:14:28;;;;;;;5.05;1.45;;;16.90;83.00;;;;;;5073346;28;20039;-51
2021/06/15 07:16:56;;;;;;;2.28;1.52;;;16.90;83.80;;;;;;5072999;28;20485;-61
2021/06/15 07:19:23;;;;;;;2.35;1.58;;;16.90;82.90;;;;;;5072517;28;20091;-53
2021/06/15 07:21:50;;;;;;;1.40;1.30;;;16.90;83.90;;;;;;5072664;28;20451;-56
2021/06/15 07:24:18;;;;;;;2.40;1.23;;;16.80;83.00;;;;;;5073247;28;20036;-57
2021/06/15 07:26:45;;;;;;;1.33;1.13;;;16.80;83.10;;;;;;5073087;28;20032;-54
2021/06/15 07:29:12;;;;;;;3.65;1.65;;;16.80;83.30;;;;;;5072486;28;20095;-51
2021/06/15 07:31:40;;;;;;;2.30;1.60;;;16.80;83.50;;;;;;5054848;28;20025;-55
2021/06/15 07:34:07;;;;;;;2.35;1.33;;;16.80;83.40;;;;;;5072593;28;20021;-59
2021/06/15 07:36:34;;;;;;;2.17;1.23;;;16.70;83.50;;;;;;5072935;28;20132;-56
2021/06/15 07:39:02;;;;;;;2.15;1.42;;;16.70;84.00;;;;;;5072297;28;20052;-58
2021/06/15 07:41:30;;;;;;;1.83;1.63;;;16.70;83.60;;;;;;5072357;28;20102;-59
2021/06/15 07:43:57;;;;;;;5.05;1.52;;;16.70;83.80;;;;;;5072970;28;20058;-55
2021/06/15 07:46:24;;;;;;;2.28;1.58;;;16.70;84.20;;;;;;5071998;28;20078;-52
2021/06/15 07:48:53;;;;;;;5.13;1.27;;;16.70;83.80;;;;;;5072293;28;20063;-58
2021/06/15 07:51:22;;;;;;;3.30;1.20;;;16.70;84.10;;;;;;5072974;28;20486;-61
2021/06/15 07:53:49;;;;;;;2.53;1.60;;;16.70;84.00;;;;;;5038349;28;20454;-60
2021/06/15 07:56:17;;;;;;;1.60;1.40;;;16.70;84.10;;;;;;5071987;28;20031;-54
2021/06/15 07:58:45;;;;;;;2.58;1.40;;;16.70;84.10;;;;;;5072670;28;20487;-60
2021/06/15 08:01:15;;;;;;;2.53;1.40;;;16.70;84.20;;;;;;5072216;28;20480;-56
2021/06/15 08:03:43;;;;;;;3.83;1.20;;;16.70;83.90;;;;;;5068290;28;20021;-61
2021/06/15 08:06:11;;;;;;;3.97;1.98;;;16.70;84.10;;;;;;5072004;28;20340;-54
2021/06/15 08:08:38;;;;;;;3.90;1.95;;;16.70;84.10;;;;;;5054401;28;20428;-60
2021/06/15 08:11:05;;;;;;;3.22;1.55;;;16.70;84.70;;;;;;5071764;28;20414;-58
2021/06/15 08:13:33;;;;;;;2.28;1.63;;;16.70;84.20;;;;;;5071831;28;20107;-60
2021/06/15 08:16:00;;;;;;;2.88;1.60;;;16.60;84.40;;;;;;5071922;28;20092;-58
2021/06/15 08:18:28;;;;;;;3.65;1.77;;;16.60;84.30;;;;;;5071791;28;20122;-58
2021/06/15 08:20:57;;;;;;;3.15;2.30;;;16.70;84.60;;;;;;5071836;28;20036;-53
2021/06/15 08:23:25;;;;;;;4.22;2.25;;;16.60;84.10;;;;;;5071980;28;20104;-62
2021/06/15 08:25:52;;;;;;;3.22;2.08;;;16.60;84.20;;;;;;5071226;28;20035;-59
2021/06/15 08:28:21;;;;;;;2.80;2.15;;;16.70;84.80;;;;;;5071077;28;20036;-52
2021/06/15 08:30:49;;;;;;;2.80;2.45;;;16.70;84.30;;;;;;5069992;28;20040;-58
2021/06/15 08:33:17;;;;;;;2.70;2.40;;;16.70;84.50;;;;;;5054165;28;20024;-57
2021/06/15 08:35:44;;;;;;;3.63;3.00;;;16.70;84.20;;;;;;5054799;28;20028;-53
2021/06/15 08:38:12;;;;;;;8.77;2.75;;;16.60;84.50;;;;;;5072382;28;20428;-59
2021/06/15 08:40:42;;;;;;;5.18;3.20;;;16.70;84.60;;;;;;5072138;28;20174;-56
2021/06/15 08:43:10;;;;;;;8.02;3.55;;;16.60;84.60;;;;;;5071935;28;20024;-63
2021/06/15 08:45:39;;;;;;;4.72;2.83;;;16.60;84.50;;;;;;5063660;28;20051;-52
2021/06/15 08:48:07;;;;;;;2.88;2.20;;;16.60;84.80;;;;;;5068701;28;20100;-56
2021/06/15 08:50:36;;;;;;;5.95;3.10;;;16.60;84.70;;;;;;5068542;28;20150;-53
2021/06/15 08:53:04;;;;;;;5.40;3.17;;;16.60;85.00;;;;;;5066899;28;20802;-52
2021/06/15 08:55:33;;;;;;;5.43;2.50;;;16.60;84.50;;;;;;5066866;28;20029;-53
2021/06/15 08:58:14;;;;;;;5.53;2.65;;;16.60;84.80;;;;;;5069170;28;20399;-56
2021/06/15 09:00:43;;;;;;;3.00;2.47;;;16.60;84.50;;;;;;5068892;28;20352;-56
2021/06/15 09:03:14;;;;;;;3.55;2.75;;;16.60;84.40;;;;;;5048581;28;20108;-54
2021/06/15 09:05:42;;;;;;;5.30;3.08;;;16.60;84.60;;;;;;5067168;28;20108;-54
2021/06/15 09:08:14;;;;;;;3.70;2.63;;;16.60;84.40;;;;;;5068625;28;20024;-55
2021/06/15 09:10:44;;;;;;;4.63;2.95;;;16.60;84.60;;;;;;5068546;28;20017;-55
2021/06/15 09:13:35;;;;;;;2.40;2.20;;;16.60;84.70;;;;;;5065898;28;20032;-51
2021/06/15 09:16:20;;;;;;;6.43;2.95;;;16.60;84.70;;;;;;5067293;28;20499;-54
2021/06/15 09:18:48;;;;;;;2.97;2.65;;;16.60;85.00;;;;;;5068468;28;20119;-53
2021/06/15 09:21:39;;;;;;;5.10;2.75;;;16.60;85.00;;;;;;5068596;28;20043;-52
2021/06/15 09:24:26;;;;;;;4.78;3.05;;;16.60;84.80;;;;;;5036211;28;20123;-56
2021/06/15 09:27:10;;;;;;;4.00;2.65;;;16.60;84.60;;;;;;5069477;28;20029;-54
2021/06/15 09:29:43;;;;;;;4.45;3.28;;;16.60;84.50;;;;;;5067800;28;20074;-55
2021/06/15 09:32:17;;;;;;;8.55;3.28;;;16.60;84.40;;;;;;5068420;28;20029;-57
2021/06/15 09:35:04;;;;;;;6.72;2.53;;;16.60;84.50;;;;;;5064984;28;20048;-48
2021/06/15 09:37:36;;;;;;;5.32;2.90;;;16.60;84.50;;;;;;5069284;28;20021;-57
2021/06/15 09:40:16;;;;;;;4.63;2.88;;;16.60;84.30;;;;;;5070975;28;20024;-52
2021/06/15 09:43:05;;;;;;;5.43;2.65;;;16.60;84.30;;;;;;5072828;28;20043;-52
2021/06/15 09:45:38;;;;;;;2.85;2.28;;;16.60;84.30;;;;;;5070168;28;20029;-51
2021/06/15 09:48:27;;;;;;;4.63;2.47;;;16.60;84.00;;;;;;5072638;28;20031;-51
2021/06/15 09:51:00;;;;;;;3.00;2.55;;;16.60;84.00;;;;;;5071186;28;20021;-55
2021/06/15 09:53:36;;;;;;;2.58;2.22;;;16.60;84.10;;;;;;5047606;28;20025;-56
2021/06/15 09:56:09;;;;;;;4.18;3.15;;;16.60;84.00;;;;;;5070546;28;20099;-49
2021/06/15 09:58:53;;;;;;;22.65;13.15;;;16.60;84.00;;;;;;5072336;28;20031;-55
2021/06/15 10:01:28;;;;;;;51.90;25.65;;;16.60;83.90;;;;;;5071827;28;20032;-55
2021/06/15 10:04:15;;;;;;;106.68;48.60;;;16.60;84.50;;;;;;5068914;28;20024;-57
2021/06/15 10:06:57;;;;;;;124.25;58.35;;;16.70;84.20;;;;;;5071761;28;20024;-54
2021/06/15 10:09:26;;;;;;;136.90;64.07;;;16.70;84.00;;;;;;5053600;28;20109;-57
2021/06/15 10:11:59;;;;;;;165.32;81.18;;;16.70;84.30;;;;;;5072656;28;20112;-51
2021/06/15 10:14:27;;;;;;;187.85;88.10;;;16.70;84.10;;;;;;5066310;28;20494;-57
2021/06/15 10:16:56;;;;;;;200.05;97.55;;;16.70;84.20;;;;;;5072000;28;20062;-60
2021/06/15 10:19:24;;;;;;;206.13;102.47;;;16.70;84.10;;;;;;5071893;28;20052;-48
2021/06/15 10:21:52;;;;;;;204.13;105.30;;;16.70;84.10;;;;;;5070515;28;20063;-49
2021/06/15 10:24:24;;;;;;;199.07;103.13;;;16.70;84.40;;;;;;5067732;28;20025;-54
2021/06/15 10:26:55;;;;;;;214.68;109.82;;;16.70;84.50;;;;;;5071347;28;20032;-57
2021/06/15 10:29:23;;;;;;;210.23;112.00;;;16.60;84.30;;;;;;5071412;28;20028;-48
2021/06/15 10:31:52;;;;;;;224.88;114.65;;;16.60;84.40;;;;;;5053902;28;20024;-51
2021/06/15 10:34:51;;;;;;;234.05;115.05;;;16.60;84.30;;;;;;5068155;28;20039;-58
2021/06/15 10:37:38;;;;;;;242.02;117.75;;;16.60;84.40;;;;;;5062446;28;20094;-51
2021/06/15 10:40:23;;;;;;;235.80;118.68;;;16.60;84.50;;;;;;5070726;28;20028;-54
2021/06/15 10:43:12;;;;;;;234.45;120.45;;;16.50;84.50;;;;;;5071068;28;20525;-59
2021/06/15 10:45:40;;;;;;;219.18;117.28;;;16.50;84.60;;;;;;5021402;28;20032;-55
2021/06/15 10:48:12;;;;;;;232.55;119.20;;;16.50;85.10;;;;;;5070315;28;20029;-49
2021/06/15 10:50:42;;;;;;;223.98;116.82;;;16.40;85.00;;;;;;5071117;28;20025;-56
2021/06/15 10:53:11;;;;;;;239.13;120.80;;;16.50;84.80;;;;;;5068416;28;20039;-49
2021/06/15 10:55:49;;;;;;;235.38;121.93;;;16.50;84.80;;;;;;5070881;28;20029;-51
2021/06/15 10:58:38;;;;;;;230.63;120.50;;;16.50;84.90;;;;;;5070739;28;20375;-50
2021/06/15 11:01:28;;;;;;;215.07;110.32;;;16.50;84.70;;;;;;5069543;28;20380;-51
2021/06/15 11:04:11;;;;;;;231.10;123.88;;;16.40;85.20;;;;;;5071586;28;20021;-52
2021/06/15 11:06:51;;;;;;;229.90;120.68;;;16.40;84.90;;;;;;5070572;28;20093;-57
2021/06/15 11:09:33;;;;;;;237.73;124.80;;;16.40;84.80;;;;;;5069133;28;20035;-55
2021/06/15 11:12:04;;;;;;;227.52;122.13;;;16.40;85.10;;;;;;5071390;28;20564;-54
2021/06/15 11:14:32;;;;;;;230.57;126.00;;;16.40;85.00;;;;;;5069389;28;20047;-52
2021/06/15 11:17:01;;;;;;;232.95;124.93;;;16.40;84.90;;;;;;5055204;28;20112;-54
2021/06/15 11:19:33;;;;;;;227.95;124.80;;;16.40;84.70;;;;;;5072843;28;20485;-56
2021/06/15 11:22:00;;;;;;;;;;;16.40;85.00;;;;;;5068472;28;20047;-54
2021/06/15 11:24:51;;;;;;;236.10;126.18;;;16.30;84.70;;;;;;5069876;28;19904;-47
2021/06/15 11:27:34;;;;;;;224.98;120.70;;;16.30;85.30;;;;;;5069669;28;20028;-58
2021/06/15 11:30:23;;;;;;;228.88;121.93;;;16.30;84.80;;;;;;5053539;28;20103;-55
2021/06/15 11:33:00;;;;;;;227.85;120.53;;;16.30;85.00;;;;;;5036991;28;20028;-53
2021/06/15 11:35:39;;;;;;;224.20;122.57;;;16.30;84.90;;;;;;5068459;28;20032;-53
2021/06/15 11:38:15;;;;;;;228.75;124.70;;;16.30;85.00;;;;;;5067350;28;20033;-56
2021/06/15 11:40:43;;;;;;;237.25;125.80;;;16.30;85.10;;;;;;5067249;28;20498;-50
2021/06/15 11:43:11;;;;;;;232.32;121.50;;;16.20;85.10;;;;;;5068345;28;20043;-52
2021/06/15 11:45:48;;;;;;;227.30;124.28;;;16.20;85.70;;;;;;5070254;28;20028;-51
2021/06/15 11:48:35;;;;;;;221.35;118.93;;;16.20;85.20;;;;;;5068337;28;20036;-56
2021/06/15 11:51:07;;;;;;;204.25;114.93;;;16.20;85.10;;;;;;5069668;28;20025;-53
2021/06/15 11:53:37;;;;;;;215.73;117.60;;;16.20;85.30;;;;;;5048383;28;20498;-52
2021/06/15 11:56:31;;;;;;;222.60;120.13;;;16.20;85.20;;;;;;5069123;28;20032;-61
2021/06/15 11:58:58;;;;;;;216.93;121.05;;;16.20;85.20;;;;;;5059957;28;20032;-55
2021/06/15 12:01:26;;;;;;;210.70;117.35;;;16.10;85.20;;;;;;5069850;28;20028;-57
2021/06/15 12:03:53;;;;;;;216.25;121.03;;;16.20;85.30;;;;;;5067381;28;20041;-50
2021/06/15 12:06:21;;;;;;;206.73;117.40;;;16.10;85.20;;;;;;5070048;28;20020;-60
2021/06/15 12:08:51;;;;;;;213.63;114.35;;;16.20;85.20;;;;;;5070828;28;20429;-59
2021/06/15 12:11:20;;;;;;;207.77;117.60;;;16.10;85.20;;;;;;5069149;28;20043;-52
2021/06/15 12:13:49;;;;;;;204.15;112.40;;;16.10;85.20;;;;;;5066818;28;20029;-52
2021/06/15 12:16:29;;;;;;;199.60;109.07;;;16.10;85.20;;;;;;5070393;28;20039;-52
2021/06/15 12:18:58;;;;;;;200.50;112.95;;;16.10;85.20;;;;;;5070223;28;20532;-46
2021/06/15 12:21:32;;;;;;;191.90;107.70;;;16.10;85.10;;;;;;5069727;28;20033;-50
2021/06/15 12:24:04;;;;;;;202.73;112.18;;;16.10;85.20;;;;;;5048113;28;20024;-60
2021/06/15 12:26:32;;;;;;;201.45;107.22;;;16.00;85.10;;;;;;5070451;28;20028;-52
2021/06/15 12:29:00;;;;;;;198.73;109.03;;;16.00;85.30;;;;;;5070069;28;20040;-61
2021/06/15 12:31:28;;;;;;;202.40;110.03;;;16.00;85.20;;;;;;5069549;28;20028;-55
2021/06/15 12:34:17;;;;;;;181.45;103.80;;;16.00;85.10;;;;;;5066979;28;20040;-53
2021/06/15 12:36:48;;;;;;;193.32;102.80;;;16.00;85.20;;;;;;5070106;28;20025;-54
2021/06/15 12:39:29;;;;;;;179.52;105.22;;;16.00;85.20;;;;;;5058237;28;20032;-51
2021/06/15 12:41:59;;;;;;;181.32;101.60;;;15.90;85.20;;;;;;5071470;28;20045;-56
2021/06/15 12:44:34;;;;;;;185.10;104.40;;;15.90;85.40;;;;;;5072238;28;20021;-53
2021/06/15 12:47:04;;;;;;;177.75;104.25;;;15.90;85.40;;;;;;5072543;28;20372;-56
2021/06/15 12:49:33;;;;;;;170.15;96.47;;;15.80;85.50;;;;;;5072319;28;20021;-52
2021/06/15 12:52:11;;;;;;;175.50;99.57;;;15.80;85.50;;;;;;5072284;28;20106;-52
2021/06/15 12:54:45;;;;;;;173.13;97.07;;;15.80;85.50;;;;;;5069452;28;20028;-57
2021/06/15 12:57:20;;;;;;;165.93;96.80;;;15.80;85.50;;;;;;5072225;28;20033;-51
2021/06/15 13:00:21;;;;;;;174.00;95.22;;;15.80;85.60;;;;;;5072684;28;20426;-58
2021/06/15 13:02:48;;;;;;;173.55;97.63;;;15.80;85.70;;;;;;5054145;28;20045;-55
2021/06/15 13:05:19;;;;;;;167.13;94.50;;;15.70;85.70;;;;;;5071649;28;20036;-56
2021/06/15 13:07:57;;;;;;;168.65;93.30;;;15.70;85.80;;;;;;5071563;28;20487;-53